createdAt,value
2022-12-20T00:01:50.062Z,65.07
2022-12-20T00:04:17.034Z,66.60
2022-12-20T00:06:43.950Z,65.90
2022-12-20T00:09:11.788Z,69.30
2022-12-20T00:11:42.195Z,67.33
2022-12-20T00:14:09.691Z,69.60
2022-12-20T00:16:39.048Z,65.17
2022-12-20T00:19:06.660Z,65.33
2022-12-20T00:21:36.166Z,61.27
2022-12-20T00:24:06.119Z,65.50
2022-12-20T00:26:33.618Z,61.37
2022-12-20T00:29:03.063Z,61.87
2022-12-20T00:31:30.335Z,68.97
2022-12-20T00:33:58.028Z,65.97
2022-12-20T00:36:28.685Z,63.93
2022-12-20T00:38:56.150Z,60.67
2022-12-20T00:41:24.685Z,66.33
2022-12-20T00:43:54.330Z,64.23
2022-12-20T00:46:21.499Z,70.13
2022-12-20T00:48:48.407Z,67.67
2022-12-20T00:51:17.572Z,67.33
2022-12-20T00:53:44.678Z,63.50
2022-12-20T00:56:13.999Z,69.33
2022-12-20T00:58:41.725Z,64.27
2022-12-20T01:01:33.295Z,60.03
2022-12-20T01:04:00.406Z,63.63
2022-12-20T01:06:27.695Z,58.63
2022-12-20T01:08:54.759Z,61.87
2022-12-20T01:11:25.195Z,57.93
2022-12-20T01:13:56.156Z,60.60
2022-12-20T01:16:25.202Z,59.47
2022-12-20T01:18:54.879Z,60.30
2022-12-20T01:21:25.363Z,59.23
2022-12-20T01:23:52.424Z,59.23
2022-12-20T01:26:20.609Z,71.80
2022-12-20T01:28:47.806Z,57.77
2022-12-20T01:31:16.557Z,57.50
2022-12-20T01:33:43.994Z,62.27
2022-12-20T01:36:21.777Z,54.73
2022-12-20T01:38:48.613Z,62.90
2022-12-20T01:41:21.691Z,60.77
2022-12-20T01:43:48.581Z,63.53
2022-12-20T01:46:15.705Z,68.37
2022-12-20T01:48:49.077Z,58.93
2022-12-20T01:51:16.081Z,64.57
2022-12-20T01:53:45.053Z,62.63
2022-12-20T01:56:11.894Z,57.40
2022-12-20T01:58:41.294Z,64.23
2022-12-20T02:01:08.187Z,63.87
2022-12-20T02:03:35.185Z,65.50
2022-12-20T02:06:22.824Z,65.50
2022-12-20T02:08:52.667Z,57.83
2022-12-20T02:11:31.601Z,56.80
2022-12-20T02:14:13.541Z,63.30
2022-12-20T02:16:44.836Z,58.30
2022-12-20T02:19:20.763Z,62.40
2022-12-20T02:21:54.656Z,64.33
2022-12-20T02:25:06.389Z,67.83
2022-12-20T02:27:45.392Z,64.90
2022-12-20T02:30:14.379Z,58.03
2022-12-20T02:32:52.131Z,54.47
2022-12-20T02:35:25.293Z,62.00
2022-12-20T02:37:57.252Z,65.63
2022-12-20T02:40:29.127Z,60.13
2022-12-20T02:42:58.962Z,61.97
2022-12-20T02:45:30.397Z,69.97
2022-12-20T02:48:03.474Z,65.47
2022-12-20T02:50:40.061Z,57.93
2022-12-20T02:53:07.306Z,65.80
2022-12-20T02:55:46.457Z,64.00
2022-12-20T02:58:19.649Z,67.30
2022-12-20T03:00:46.557Z,62.47
2022-12-20T03:03:22.766Z,59.60
2022-12-20T03:05:53.751Z,63.03
2022-12-20T03:08:21.416Z,65.43
2022-12-20T03:10:51.338Z,60.30
2022-12-20T03:13:18.320Z,62.07
2022-12-20T03:15:45.210Z,62.73
2022-12-20T03:18:12.236Z,61.17
2022-12-20T03:20:39.178Z,63.33
2022-12-20T03:23:08.530Z,57.47
2022-12-20T03:25:37.533Z,67.30
2022-12-20T03:28:07.481Z,65.10
2022-12-20T03:30:41.048Z,60.27
2022-12-20T03:33:07.825Z,59.17
2022-12-20T03:35:34.555Z,65.40
2022-12-20T03:38:03.501Z,60.03
2022-12-20T03:40:32.574Z,67.53
2022-12-20T03:43:01.428Z,61.27
2022-12-20T03:45:30.671Z,66.10
2022-12-20T03:47:57.500Z,58.87
2022-12-20T03:50:24.230Z,65.13
2022-12-20T03:52:50.974Z,61.97
2022-12-20T03:55:17.978Z,60.37
2022-12-20T03:57:44.724Z,57.50
2022-12-20T04:00:12.840Z,58.00
2022-12-20T04:02:42.081Z,58.27
2022-12-20T04:05:09.155Z,54.67
2022-12-20T04:07:35.950Z,55.97
2022-12-20T04:10:05.068Z,57.43
2022-12-20T04:12:31.821Z,55.00
2022-12-20T04:15:01.047Z,57.57
2022-12-20T04:17:28.203Z,59.67
2022-12-20T04:19:55.125Z,57.93
2022-12-20T04:22:21.902Z,57.20
2022-12-20T04:24:49.214Z,56.30
2022-12-20T04:27:16.003Z,54.43
2022-12-20T04:29:42.883Z,56.93
2022-12-20T04:32:09.661Z,57.43
2022-12-20T04:34:36.457Z,54.20
2022-12-20T04:37:05.735Z,58.87
2022-12-20T04:39:32.474Z,48.73
2022-12-20T04:41:59.213Z,55.33
2022-12-20T04:44:25.943Z,50.53
2022-12-20T04:46:55.024Z,53.17
2022-12-20T04:49:21.807Z,56.03
2022-12-20T04:51:53.276Z,50.97
2022-12-20T04:54:28.087Z,52.70
2022-12-20T04:56:54.878Z,58.80
2022-12-20T04:59:21.638Z,54.80
2022-12-20T05:01:51.125Z,52.73
2022-12-20T05:04:18.010Z,54.00
2022-12-20T05:06:46.921Z,56.23
2022-12-20T05:09:13.644Z,54.00
2022-12-20T05:11:40.402Z,54.83
2022-12-20T05:14:07.226Z,53.73
2022-12-20T05:16:34.023Z,50.73
2022-12-20T05:19:05.456Z,52.57
2022-12-20T05:21:50.722Z,52.23
2022-12-20T05:24:35.972Z,44.93
2022-12-20T05:27:02.726Z,49.90
2022-12-20T05:29:29.543Z,47.60
2022-12-20T05:31:56.400Z,45.60
2022-12-20T05:34:23.226Z,49.33
2022-12-20T05:36:50.409Z,53.23
2022-12-20T05:39:17.649Z,52.70
2022-12-20T05:41:44.518Z,52.77
2022-12-20T05:44:13.811Z,47.23
2022-12-20T05:46:40.753Z,45.03
2022-12-20T05:49:07.582Z,49.70
2022-12-20T05:51:34.573Z,41.53
2022-12-20T05:54:07.059Z,46.80
2022-12-20T05:56:33.846Z,44.03
2022-12-20T05:59:00.648Z,46.97
2022-12-20T06:01:29.657Z,43.30
2022-12-20T06:03:56.860Z,41.53
2022-12-20T06:06:23.713Z,44.03
2022-12-20T06:08:51.031Z,46.20
2022-12-20T06:11:24.339Z,48.93
2022-12-20T06:13:54.538Z,43.30
2022-12-20T06:16:23.339Z,50.00
2022-12-20T06:18:50.214Z,46.87
2022-12-20T06:21:17.165Z,46.83
2022-12-20T06:23:44.620Z,45.30
2022-12-20T06:26:11.410Z,40.73
2022-12-20T06:28:42.992Z,44.63
2022-12-20T06:31:13.036Z,44.50
2022-12-20T06:33:39.945Z,44.93
2022-12-20T06:36:06.934Z,42.30
2022-12-20T06:38:36.033Z,43.50
2022-12-20T06:41:02.851Z,41.60
2022-12-20T06:43:29.814Z,41.07
2022-12-20T06:46:01.248Z,44.23
2022-12-20T06:48:28.034Z,39.47
2022-12-20T06:50:56.249Z,39.93
2022-12-20T06:53:23.328Z,45.80
2022-12-20T06:55:50.492Z,42.93
2022-12-20T06:58:18.353Z,39.10
2022-12-20T07:00:47.829Z,43.53
2022-12-20T07:03:14.728Z,37.50
2022-12-20T07:05:44.101Z,44.53
2022-12-20T07:08:10.872Z,43.30
2022-12-20T07:10:37.826Z,44.80
2022-12-20T07:13:06.753Z,45.37
2022-12-20T07:15:35.916Z,44.57
2022-12-20T07:18:03.818Z,46.13
2022-12-20T07:20:31.062Z,40.07
2022-12-20T07:22:57.903Z,42.57
2022-12-20T07:25:25.626Z,47.67
2022-12-20T07:27:52.754Z,42.20
2022-12-20T07:30:24.225Z,42.87
2022-12-20T07:32:52.927Z,43.07
2022-12-20T07:35:19.642Z,42.90
2022-12-20T07:37:48.804Z,45.80
2022-12-20T07:40:16.582Z,43.90
2022-12-20T07:42:48.624Z,39.70
2022-12-20T07:45:15.987Z,45.10
2022-12-20T07:47:45.191Z,42.53
2022-12-20T07:50:14.223Z,39.07
2022-12-20T07:52:41.708Z,43.17
2022-12-20T07:55:08.853Z,38.87
2022-12-20T07:57:42.583Z,44.30
2022-12-20T08:00:10.882Z,37.37
2022-12-20T08:02:40.422Z,46.30
2022-12-20T08:05:08.070Z,37.83
2022-12-20T08:07:34.790Z,40.40
2022-12-20T08:10:03.745Z,38.57
2022-12-20T08:12:32.632Z,35.60
2022-12-20T08:15:01.903Z,41.90
2022-12-20T08:17:36.006Z,41.87
2022-12-20T08:20:03.591Z,41.27
2022-12-20T08:22:30.321Z,41.80
2022-12-20T08:24:59.263Z,40.50
2022-12-20T08:27:25.980Z,37.07
2022-12-20T08:29:52.749Z,40.80
2022-12-20T08:32:19.722Z,45.87
2022-12-20T08:34:46.463Z,43.50
2022-12-20T08:37:15.141Z,39.37
2022-12-20T08:39:42.121Z,41.30
2022-12-20T08:42:08.935Z,38.40
2022-12-20T08:44:35.773Z,41.73
2022-12-20T08:47:02.503Z,43.37
2022-12-20T08:49:29.236Z,44.63
2022-12-20T08:51:58.234Z,41.30
2022-12-20T08:54:27.119Z,41.67
2022-12-20T08:56:53.980Z,40.67
2022-12-20T08:59:20.729Z,41.97
2022-12-20T09:01:47.576Z,41.27
2022-12-20T09:04:15.471Z,41.20
2022-12-20T09:06:44.754Z,41.90
2022-12-20T09:09:11.475Z,44.07
2022-12-20T09:11:38.195Z,44.40
2022-12-20T09:14:04.928Z,38.97
2022-12-20T09:16:32.409Z,43.57
2022-12-20T09:19:05.043Z,39.43
2022-12-20T09:21:35.117Z,39.83
2022-12-20T09:24:02.045Z,39.13
2022-12-20T09:26:28.849Z,40.03
2022-12-20T09:28:55.633Z,41.43
2022-12-20T09:31:23.959Z,43.47
2022-12-20T09:33:53.122Z,39.10
2022-12-20T09:36:23.153Z,44.17
2022-12-20T09:38:52.508Z,40.10
2022-12-20T09:41:34.541Z,39.93
2022-12-20T09:44:19.388Z,42.07
2022-12-20T09:46:52.989Z,48.10
2022-12-20T09:49:19.854Z,46.47
2022-12-20T09:52:00.642Z,48.47
2022-12-20T09:54:48.029Z,46.70
2022-12-20T09:57:18.171Z,41.20
2022-12-20T09:59:49.850Z,43.30
2022-12-20T10:02:58.434Z,45.83
2022-12-20T10:05:17.236Z,45.40
2022-12-20T10:08:06.479Z,45.83
2022-12-20T10:10:40.041Z,40.10
2022-12-20T10:13:11.998Z,43.73
2022-12-20T10:15:43.328Z,48.17
2022-12-20T10:18:33.573Z,44.87
2022-12-20T10:21:07.795Z,48.03
2022-12-20T10:23:51.817Z,46.47
2022-12-20T10:26:18.684Z,43.53
2022-12-20T10:28:53.847Z,46.80
2022-12-20T10:31:21.618Z,49.77
2022-12-20T10:33:48.654Z,48.13
2022-12-20T10:36:19.492Z,52.83
2022-12-20T10:38:49.591Z,44.47
2022-12-20T10:41:23.013Z,47.10
2022-12-20T10:44:06.928Z,48.60
2022-12-20T10:46:45.553Z,44.90
2022-12-20T10:49:31.312Z,48.53
2022-12-20T10:52:24.735Z,39.53
2022-12-20T10:54:51.539Z,49.03
2022-12-20T10:57:23.011Z,44.43
2022-12-20T11:00:06.438Z,44.83
2022-12-20T11:02:42.017Z,49.37
2022-12-20T11:05:12.553Z,49.00
2022-12-20T11:10:50.040Z,45.93
2022-12-20T11:13:25.775Z,51.03
2022-12-20T11:15:57.040Z,48.10
2022-12-20T11:18:46.694Z,45.27
2022-12-20T11:21:30.229Z,50.20
2022-12-20T11:24:10.727Z,53.00
2022-12-20T11:27:00.653Z,50.20
2022-12-20T11:29:33.442Z,51.07
2022-12-20T11:32:21.622Z,50.20
2022-12-20T11:34:59.990Z,53.83
2022-12-20T11:37:27.729Z,47.90
2022-12-20T11:40:28.543Z,47.50
2022-12-20T11:43:14.530Z,45.87
2022-12-20T11:46:07.190Z,47.00
2022-12-20T11:48:55.192Z,48.37
2022-12-20T11:51:28.457Z,51.67
2022-12-20T11:54:03.271Z,47.57
2022-12-20T11:56:43.890Z,52.17
2022-12-20T11:59:31.449Z,44.47
2022-12-20T12:02:13.998Z,49.43
2022-12-20T12:04:55.654Z,50.07
2022-12-20T12:07:26.989Z,48.73
2022-12-20T12:09:56.833Z,50.97
2022-12-20T12:12:40.828Z,46.93
2022-12-20T12:15:27.217Z,49.07
2022-12-20T12:18:20.465Z,46.93
2022-12-20T12:21:09.454Z,48.60
2022-12-20T12:23:52.230Z,46.37
2022-12-20T12:26:27.501Z,46.63
2022-12-20T12:29:09.574Z,57.37
2022-12-20T12:31:46.970Z,49.90
2022-12-20T12:34:36.165Z,52.33
2022-12-20T12:37:21.085Z,53.23
2022-12-20T12:40:10.505Z,49.90
2022-12-20T12:42:56.587Z,46.17
2022-12-20T12:45:27.596Z,53.70
2022-12-20T12:48:02.009Z,50.40
2022-12-20T12:50:31.915Z,54.50
2022-12-20T12:53:06.540Z,51.67
2022-12-20T12:55:40.783Z,51.87
2022-12-20T12:58:22.540Z,47.27
2022-12-20T13:00:56.032Z,52.33
2022-12-20T13:03:39.888Z,50.93
2022-12-20T13:06:31.143Z,50.33
2022-12-20T13:09:03.879Z,53.53
2022-12-20T13:11:46.308Z,51.13
2022-12-20T13:14:25.477Z,50.20
2022-12-20T13:17:14.478Z,52.07
2022-12-20T13:19:54.237Z,46.23
2022-12-20T13:22:24.793Z,59.90
2022-12-20T13:25:03.701Z,53.70
2022-12-20T13:27:39.023Z,51.33
2022-12-20T13:30:14.863Z,53.80
2022-12-20T13:32:47.905Z,50.97
2022-12-20T13:35:28.041Z,52.50
2022-12-20T13:38:04.793Z,52.07
2022-12-20T13:40:48.033Z,50.70
2022-12-20T13:43:20.549Z,54.77
2022-12-20T13:45:58.983Z,56.43
2022-12-20T13:48:28.028Z,51.07
2022-12-20T13:50:57.451Z,52.13
2022-12-20T13:53:27.746Z,54.57
2022-12-20T13:55:57.066Z,53.93
2022-12-20T13:58:34.379Z,53.50
2022-12-20T14:01:11.695Z,50.43
2022-12-20T14:03:42.356Z,53.67
2022-12-20T14:06:13.218Z,50.37
2022-12-20T14:08:43.139Z,55.70
2022-12-20T14:11:18.964Z,52.37
2022-12-20T14:14:14.509Z,51.97
2022-12-20T14:16:41.373Z,49.37
2022-12-20T14:19:12.998Z,53.13
2022-12-20T14:21:43.977Z,55.23
2022-12-20T14:24:16.021Z,54.33
2022-12-20T14:26:48.163Z,61.27
2022-12-20T14:29:19.808Z,55.30
2022-12-20T14:31:49.785Z,57.43
2022-12-20T14:34:30.128Z,52.23
2022-12-20T14:37:20.918Z,54.90
2022-12-20T14:40:09.377Z,53.43
2022-12-20T14:42:41.021Z,55.47
2022-12-20T14:45:10.901Z,56.43
2022-12-20T14:47:38.042Z,51.60
2022-12-20T14:50:14.117Z,52.40
2022-12-20T14:52:45.736Z,52.97
2022-12-20T14:55:18.313Z,52.27
2022-12-20T14:57:52.783Z,50.63
2022-12-20T15:00:23.752Z,53.60
2022-12-20T15:02:57.067Z,54.90
2022-12-20T15:05:36.544Z,52.67
2022-12-20T15:08:27.268Z,51.53
2022-12-20T15:11:12.116Z,47.27
2022-12-20T15:13:42.650Z,55.87
2022-12-20T15:16:15.606Z,49.37
2022-12-20T15:18:42.455Z,53.97
2022-12-20T15:21:16.682Z,54.47
2022-12-20T15:23:47.812Z,61.97
2022-12-20T15:26:15.890Z,53.57
2022-12-20T15:28:44.882Z,57.73
2022-12-20T15:31:12.495Z,57.67
2022-12-20T15:33:40.248Z,54.20
2022-12-20T15:36:07.388Z,57.80
2022-12-20T15:41:32.217Z,57.20
2022-12-20T15:44:21.423Z,55.77
2022-12-20T15:46:48.487Z,54.13
2022-12-20T15:49:21.523Z,54.53
2022-12-20T15:51:49.332Z,55.40
2022-12-20T15:54:22.700Z,52.70
2022-12-20T15:56:52.625Z,60.47
2022-12-20T15:59:57.853Z,56.27
2022-12-20T16:02:33.295Z,55.43
2022-12-20T16:05:00.371Z,52.43
2022-12-20T16:07:27.332Z,55.87
2022-12-20T16:09:54.279Z,58.80
2022-12-20T16:12:42.006Z,55.20
2022-12-20T16:15:21.648Z,59.60
2022-12-20T16:17:48.470Z,57.10
2022-12-20T16:20:17.967Z,59.30
2022-12-20T16:22:44.797Z,55.23
2022-12-20T16:25:25.141Z,55.10
2022-12-20T16:27:52.036Z,58.27
2022-12-20T16:30:18.809Z,60.43
2022-12-20T16:32:49.979Z,56.53
2022-12-20T16:35:31.787Z,60.63
2022-12-20T16:37:59.210Z,61.10
2022-12-20T16:40:28.106Z,61.17
2022-12-20T16:42:55.483Z,56.43
2022-12-20T16:45:24.770Z,55.33
2022-12-20T16:47:53.124Z,59.77
2022-12-20T16:50:20.734Z,61.40
2022-12-20T16:52:47.570Z,61.50
2022-12-20T16:55:18.768Z,51.57
2022-12-20T16:57:45.540Z,55.93
2022-12-20T17:00:19.172Z,55.00
2022-12-20T17:02:46.045Z,53.70
2022-12-20T17:05:30.459Z,58.57
2022-12-20T17:07:57.321Z,55.97
2022-12-20T17:10:27.340Z,50.73
2022-12-20T17:12:57.386Z,59.37
2022-12-20T17:15:28.785Z,55.67
2022-12-20T17:17:58.462Z,59.67
2022-12-20T17:20:25.375Z,63.77
2022-12-20T17:25:38.347Z,57.00
2022-12-20T17:28:06.279Z,53.73
2022-12-20T17:30:33.096Z,53.13
2022-12-20T17:33:02.318Z,49.93
2022-12-20T17:35:30.841Z,50.70
2022-12-20T17:37:57.833Z,54.23
2022-12-20T17:40:25.547Z,54.80
2022-12-20T17:42:52.554Z,55.73
2022-12-20T17:45:25.569Z,54.57
2022-12-20T17:47:55.572Z,52.97
2022-12-20T17:50:22.575Z,56.70
2022-12-20T17:52:49.432Z,53.73
2022-12-20T17:55:18.679Z,53.53
2022-12-20T17:57:45.437Z,56.63
2022-12-20T18:00:22.997Z,55.70
2022-12-20T18:02:49.982Z,55.97
2022-12-20T18:05:21.940Z,53.93
2022-12-20T18:07:55.688Z,55.43
2022-12-20T18:10:25.332Z,53.57
2022-12-20T18:12:52.147Z,47.40
2022-12-20T18:15:21.478Z,52.63
2022-12-20T18:17:50.818Z,57.03
2022-12-20T18:20:17.649Z,54.23
2022-12-20T18:22:47.171Z,52.97
2022-12-20T18:25:14.080Z,55.33
2022-12-20T18:27:46.051Z,50.30
2022-12-20T18:30:17.810Z,54.33
2022-12-20T18:32:46.996Z,55.63
2022-12-20T18:35:15.977Z,52.13
2022-12-20T18:37:42.769Z,45.87
2022-12-20T18:40:09.904Z,54.63
2022-12-20T18:42:36.819Z,52.83
2022-12-20T18:45:03.736Z,55.90
2022-12-20T18:47:32.355Z,53.03
2022-12-20T18:49:59.359Z,54.83
2022-12-20T18:52:28.370Z,51.60
2022-12-20T18:54:55.137Z,49.90
2022-12-20T18:57:24.331Z,56.60
2022-12-20T18:59:51.298Z,51.07
2022-12-20T19:02:18.374Z,52.97
2022-12-20T19:04:45.292Z,49.67
2022-12-20T19:07:15.575Z,54.70
2022-12-20T19:09:42.345Z,55.67
2022-12-20T19:12:09.293Z,53.43
2022-12-20T19:14:36.055Z,50.20
2022-12-20T19:17:05.025Z,47.10
2022-12-20T19:19:34.742Z,50.03
2022-12-20T19:22:02.082Z,47.93
2022-12-20T19:24:31.950Z,52.13
2022-12-20T19:27:01.140Z,54.83
2022-12-20T19:29:28.318Z,48.23
2022-12-20T19:31:55.481Z,52.43
2022-12-20T19:34:22.291Z,51.70
2022-12-20T19:36:52.894Z,53.47
2022-12-20T19:39:20.890Z,53.97
2022-12-20T19:42:21.684Z,49.67
2022-12-20T19:44:36.947Z,49.17
2022-12-20T19:47:06.655Z,48.60
2022-12-20T19:49:35.529Z,53.70
2022-12-20T19:52:02.584Z,56.30
2022-12-20T19:54:29.347Z,51.27
2022-12-20T19:56:58.681Z,50.73
2022-12-20T19:59:30.282Z,48.90
2022-12-20T20:01:57.397Z,53.67
2022-12-20T20:04:24.329Z,51.57
2022-12-20T20:06:51.123Z,49.97
2022-12-20T20:09:17.922Z,51.17
2022-12-20T20:11:44.730Z,49.57
2022-12-20T20:14:11.514Z,49.03
2022-12-20T20:16:43.965Z,46.83
2022-12-20T20:19:10.780Z,51.63
2022-12-20T20:21:38.058Z,55.30
2022-12-20T20:24:05.371Z,48.43
2022-12-20T20:26:32.184Z,48.13
2022-12-20T20:29:00.796Z,47.63
2022-12-20T20:31:27.650Z,49.37
2022-12-20T20:34:02.050Z,47.83
2022-12-20T20:36:31.926Z,51.63
2022-12-20T20:39:41.523Z,49.13
2022-12-20T20:42:08.311Z,46.03
2022-12-20T20:44:35.092Z,48.03
2022-12-20T20:47:01.977Z,44.07
2022-12-20T20:49:32.141Z,48.53
2022-12-20T20:52:01.325Z,52.53
2022-12-20T20:54:30.572Z,45.73
2022-12-20T20:57:00.417Z,49.40
2022-12-20T20:59:27.211Z,53.67
2022-12-20T21:01:55.052Z,47.53
2022-12-20T21:04:24.250Z,49.03
2022-12-20T21:06:51.023Z,55.43
2022-12-20T21:09:20.258Z,51.70
2022-12-20T21:11:51.529Z,48.03
2022-12-20T21:14:30.570Z,47.97
2022-12-20T21:17:07.980Z,46.43
2022-12-20T21:19:37.067Z,47.40
2022-12-20T21:22:06.336Z,51.00
2022-12-20T21:24:33.195Z,49.63
2022-12-20T21:27:00.428Z,50.90
2022-12-20T21:29:27.246Z,47.63
2022-12-20T21:31:58.394Z,48.03
2022-12-20T21:34:27.473Z,49.13
2022-12-20T21:36:58.836Z,48.37
2022-12-20T21:39:27.815Z,49.03
2022-12-20T21:42:01.721Z,53.80
2022-12-20T21:44:33.262Z,47.53
2022-12-20T21:47:00.216Z,46.80
2022-12-20T21:49:27.321Z,47.07
2022-12-20T21:52:00.499Z,48.33
2022-12-20T21:54:27.260Z,48.57
2022-12-20T21:57:06.364Z,52.73
2022-12-20T21:59:33.155Z,48.40
2022-12-20T22:02:06.063Z,48.53
2022-12-20T22:04:33.435Z,47.60
2022-12-20T22:07:00.175Z,50.40
2022-12-20T22:09:35.879Z,48.40
2022-12-20T22:12:02.647Z,50.93
2022-12-20T22:14:29.494Z,53.17
2022-12-20T22:16:56.395Z,55.27
2022-12-20T22:19:30.475Z,48.83
2022-12-20T22:21:58.470Z,49.43
2022-12-20T22:24:25.583Z,46.73
2022-12-20T22:26:54.682Z,45.93
2022-12-20T22:29:26.226Z,51.73
2022-12-20T22:31:55.389Z,50.93
2022-12-20T22:34:24.385Z,48.53
2022-12-20T22:36:51.172Z,49.73
2022-12-20T22:39:18.029Z,53.43
2022-12-20T22:41:44.900Z,50.33
2022-12-20T22:44:11.843Z,51.83
2022-12-20T22:46:41.002Z,54.03
2022-12-20T22:49:11.256Z,47.63
2022-12-20T22:51:40.254Z,50.37
2022-12-20T22:54:07.096Z,49.93
2022-12-20T22:56:36.533Z,45.23
2022-12-20T22:59:08.779Z,47.90
2022-12-20T23:01:35.718Z,51.50
2022-12-20T23:04:05.208Z,52.87
2022-12-20T23:06:34.346Z,50.53
2022-12-20T23:09:01.125Z,52.67
2022-12-20T23:11:49.329Z,47.97
2022-12-20T23:14:38.930Z,47.20
2022-12-20T23:17:06.564Z,50.20
2022-12-20T23:19:53.414Z,51.77
2022-12-20T23:22:38.441Z,45.87
2022-12-20T23:25:13.812Z,46.03
2022-12-20T23:27:41.566Z,45.07
2022-12-20T23:30:11.677Z,50.17
2022-12-20T23:32:38.480Z,47.13
2022-12-20T23:35:12.291Z,54.50
2022-12-20T23:37:39.571Z,51.03
2022-12-20T23:40:10.918Z,49.20
2022-12-20T23:42:40.180Z,50.27
2022-12-20T23:45:07.519Z,46.20
2022-12-20T23:47:36.559Z,52.17
2022-12-20T23:50:03.829Z,47.77
2022-12-20T23:52:32.795Z,47.60
2022-12-20T23:54:59.618Z,47.67
2022-12-20T23:57:31.410Z,51.53
2022-12-20T23:59:58.209Z,50.60
